createdAt,value
2018-09-17T00:00:35.456Z,101310.40
2018-09-17T00:03:04.006Z,101303.61
2018-09-17T00:05:32.408Z,101297.17
2018-09-17T00:08:00.828Z,101298.99
2018-09-17T00:10:29.242Z,101306.81
2018-09-17T00:12:57.658Z,101307.22
2018-09-17T00:15:26.024Z,101297.29
2018-09-17T00:17:54.429Z,101302.41
2018-09-17T00:20:22.876Z,101309.02
2018-09-17T00:22:51.257Z,101315.61
2018-09-17T00:25:19.691Z,101309.27
2018-09-17T00:27:48.090Z,101310.19
2018-09-17T00:30:16.508Z,101307.65
2018-09-17T00:32:44.935Z,101305.05
2018-09-17T00:35:13.385Z,101292.64
2018-09-17T00:37:41.781Z,101295.64
2018-09-17T00:40:10.210Z,101311.50
2018-09-17T00:42:38.713Z,101300.34
2018-09-17T00:45:07.149Z,101303.28
2018-09-17T00:47:35.593Z,101301.14
2018-09-17T00:50:04.077Z,101313.52
2018-09-17T00:52:32.519Z,101311.52
2018-09-17T00:55:00.919Z,101308.48
2018-09-17T00:57:29.437Z,101317.50
2018-09-17T00:59:57.907Z,101320.51
2018-09-17T01:02:26.331Z,101315.84
2018-09-17T01:04:55.329Z,101320.54
2018-09-17T01:07:23.781Z,101319.70
2018-09-17T01:09:52.196Z,101322.77
2018-09-17T01:12:20.629Z,101329.61
2018-09-17T01:14:49.039Z,101326.59
2018-09-17T01:17:17.505Z,101329.09
2018-09-17T01:19:45.939Z,101321.34
2018-09-17T01:22:14.360Z,101325.63
2018-09-17T01:24:42.730Z,101319.66
2018-09-17T01:27:11.140Z,101319.70
2018-09-17T01:29:39.620Z,101322.66
2018-09-17T01:32:08.051Z,101324.27
2018-09-17T01:34:36.448Z,101327.23
2018-09-17T01:37:04.928Z,101324.08
2018-09-17T01:39:33.279Z,101331.39
2018-09-17T01:42:01.738Z,101334.75
2018-09-17T01:44:30.177Z,101337.23
2018-09-17T01:46:58.589Z,101335.95
2018-09-17T01:49:27.055Z,101331.18
2018-09-17T01:51:55.556Z,101329.51
2018-09-17T01:54:23.966Z,101324.34
2018-09-17T01:56:52.344Z,101317.53
2018-09-17T01:59:20.783Z,101309.45
2018-09-17T02:01:49.254Z,101305.64
2018-09-17T02:04:17.656Z,101314.64
2018-09-17T02:06:46.045Z,101318.11
2018-09-17T02:09:15.041Z,101312.06
2018-09-17T02:11:43.444Z,101308.09
2018-09-17T02:14:12.397Z,101305.03
2018-09-17T02:16:40.806Z,101301.58
2018-09-17T02:19:09.260Z,101306.13
2018-09-17T02:21:37.701Z,101297.89
2018-09-17T02:24:06.248Z,101295.80
2018-09-17T02:26:34.626Z,101288.95
2018-09-17T02:29:03.035Z,101290.23
2018-09-17T02:31:31.439Z,101288.94
2018-09-17T02:33:59.803Z,101295.60
2018-09-17T02:36:28.247Z,101298.13
2018-09-17T02:38:56.642Z,101303.28
2018-09-17T02:41:25.124Z,101301.17
2018-09-17T02:43:53.597Z,101302.86
2018-09-17T02:46:22.028Z,101295.88
2018-09-17T02:48:50.435Z,101299.17
2018-09-17T02:51:18.932Z,101294.88
2018-09-17T02:53:47.340Z,101299.64
2018-09-17T02:56:15.765Z,101300.90
2018-09-17T02:58:44.168Z,101305.59
2018-09-17T03:01:12.581Z,101308.16
2018-09-17T03:03:41.044Z,101310.70
2018-09-17T03:06:09.444Z,101309.39
2018-09-17T03:08:37.849Z,101319.48
2018-09-17T03:11:06.318Z,101325.45
2018-09-17T03:13:34.812Z,101331.89
2018-09-17T03:16:03.263Z,101304.03
2018-09-17T03:18:42.999Z,101323.44
2018-09-17T03:21:11.449Z,101319.66
2018-09-17T03:23:39.925Z,101321.09
2018-09-17T03:26:08.621Z,101324.19
2018-09-17T03:28:36.996Z,101318.22
2018-09-17T03:31:05.397Z,101324.89
2018-09-17T03:33:33.820Z,101327.34
2018-09-17T03:36:02.317Z,101319.77
2018-09-17T03:38:39.224Z,101329.17
2018-09-17T03:41:08.381Z,101336.81
2018-09-17T03:43:37.879Z,101336.73
2018-09-17T03:46:06.398Z,101332.97
2018-09-17T03:48:35.780Z,101328.37
2018-09-17T03:51:04.977Z,101330.59
2018-09-17T03:53:33.883Z,101336.26
2018-09-17T03:56:03.132Z,101341.81
2018-09-17T03:58:31.641Z,101347.83
2018-09-17T04:01:01.358Z,101330.61
2018-09-17T04:03:29.779Z,101330.98
2018-09-17T04:05:58.851Z,101329.27
2018-09-17T04:08:27.336Z,101323.81
2018-09-17T04:10:55.811Z,101327.70
2018-09-17T04:13:24.189Z,101327.72
2018-09-17T04:15:52.595Z,101330.29
2018-09-17T04:18:21.161Z,101323.31
2018-09-17T04:20:49.598Z,101302.07
2018-09-17T04:23:50.758Z,101321.48
2018-09-17T04:26:19.160Z,101313.38
2018-09-17T04:28:47.792Z,101317.63
2018-09-17T04:31:16.235Z,101322.36
2018-09-17T04:33:44.904Z,101315.46
2018-09-17T04:36:13.840Z,101299.63
2018-09-17T04:38:42.308Z,101317.84
2018-09-17T04:41:10.748Z,101317.45
2018-09-17T04:43:39.146Z,101319.40
2018-09-17T04:48:49.694Z,101323.81
2018-09-17T04:51:18.096Z,101322.09
2018-09-17T04:53:46.501Z,101315.61
2018-09-17T04:56:14.945Z,101317.71
2018-09-17T04:58:43.357Z,101319.41
2018-09-17T05:01:11.821Z,101324.95
2018-09-17T05:03:40.259Z,101328.41
2018-09-17T05:06:08.675Z,101328.85
2018-09-17T05:08:37.051Z,101330.11
2018-09-17T05:11:06.151Z,101323.23
2018-09-17T05:13:34.590Z,101328.41
2018-09-17T05:16:03.082Z,101323.59
2018-09-17T05:18:31.533Z,101335.58
2018-09-17T05:20:59.993Z,101333.01
2018-09-17T05:23:28.384Z,101343.21
2018-09-17T05:25:56.800Z,101338.09
2018-09-17T05:28:25.196Z,101335.55
2018-09-17T05:30:53.596Z,101332.20
2018-09-17T05:33:22.054Z,101331.91
2018-09-17T05:35:50.479Z,101337.11
2018-09-17T05:38:18.887Z,101341.86
2018-09-17T05:40:47.325Z,101338.02
2018-09-17T05:43:15.704Z,101343.49
2018-09-17T05:45:44.107Z,101339.16
2018-09-17T05:48:13.359Z,101343.39
2018-09-17T05:50:41.763Z,101346.42
2018-09-17T05:53:10.167Z,101346.47
2018-09-17T05:55:38.529Z,101346.89
2018-09-17T05:58:06.932Z,101352.07
2018-09-17T06:00:35.384Z,101356.80
2018-09-17T06:03:04.426Z,101361.63
2018-09-17T06:05:32.940Z,101359.94
2018-09-17T06:08:01.364Z,101366.42
2018-09-17T06:10:29.813Z,101366.89
2018-09-17T06:12:58.257Z,101369.45
2018-09-17T06:15:26.741Z,101369.04
2018-09-17T06:17:55.161Z,101373.30
2018-09-17T06:20:23.566Z,101375.47
2018-09-17T06:22:51.970Z,101371.31
2018-09-17T06:25:20.380Z,101372.64
2018-09-17T06:27:48.801Z,101374.85
2018-09-17T06:30:17.200Z,101372.41
2018-09-17T06:32:45.620Z,101375.92
2018-09-17T06:35:14.035Z,101379.86
2018-09-17T06:37:42.480Z,101376.05
2018-09-17T06:40:10.859Z,101377.86
2018-09-17T06:42:39.311Z,101373.65
2018-09-17T06:45:07.769Z,101385.28
2018-09-17T06:47:36.197Z,101383.70
2018-09-17T06:50:05.076Z,101393.64
2018-09-17T06:52:33.479Z,101393.77
2018-09-17T06:55:01.880Z,101389.95
2018-09-17T06:57:30.285Z,101392.16
2018-09-17T06:59:58.749Z,101357.66
2018-09-17T07:02:27.191Z,101398.34
2018-09-17T07:04:55.604Z,101395.01
2018-09-17T07:07:23.987Z,101395.11
2018-09-17T07:09:52.490Z,101389.59
2018-09-17T07:12:20.872Z,101390.50
2018-09-17T07:14:49.301Z,101391.84
2018-09-17T07:17:17.694Z,101389.33
2018-09-17T07:19:46.885Z,101380.38
2018-09-17T07:22:15.293Z,101385.12
2018-09-17T07:24:43.684Z,101376.59
2018-09-17T07:27:12.091Z,101377.48
2018-09-17T07:29:40.525Z,101373.73
2018-09-17T07:32:08.976Z,101329.00
2018-09-17T07:34:37.392Z,101370.07
2018-09-17T07:37:05.962Z,101368.81
2018-09-17T07:39:34.463Z,101359.02
2018-09-17T07:42:03.018Z,101356.09
2018-09-17T07:44:31.495Z,101351.00
2018-09-17T07:46:59.920Z,101358.76
2018-09-17T07:49:28.339Z,101338.55
2018-09-17T07:51:56.772Z,101360.17
2018-09-17T07:54:25.215Z,101353.78
2018-09-17T07:56:53.974Z,101352.13
2018-09-17T07:59:22.391Z,101356.91
2018-09-17T08:01:50.889Z,101359.94
2018-09-17T08:04:19.336Z,101361.66
2018-09-17T08:06:47.756Z,101363.88
2018-09-17T08:09:16.172Z,101362.61
2018-09-17T08:11:44.841Z,101360.92
2018-09-17T08:14:14.608Z,101360.98
2018-09-17T08:16:43.081Z,101362.30
2018-09-17T08:19:11.544Z,101358.91
2018-09-17T08:21:40.032Z,101360.27
2018-09-17T08:24:08.435Z,101354.70
2018-09-17T08:26:36.879Z,101353.86
2018-09-17T08:29:05.391Z,101351.35
2018-09-17T08:31:33.828Z,101347.50
2018-09-17T08:34:02.196Z,101348.00
2018-09-17T08:36:30.630Z,101345.02
2018-09-17T08:38:59.201Z,101342.92
2018-09-17T08:41:27.654Z,101340.34
2018-09-17T08:43:56.078Z,101335.19
2018-09-17T08:46:24.473Z,101333.47
2018-09-17T08:48:53.798Z,101333.86
2018-09-17T08:51:22.236Z,101336.48
2018-09-17T08:53:50.691Z,101340.78
2018-09-17T08:56:22.236Z,101336.92
2018-09-17T08:58:56.084Z,101333.49
2018-09-17T09:01:29.611Z,101328.84
2018-09-17T09:04:03.456Z,101329.28
2018-09-17T09:06:36.944Z,101332.29
2018-09-17T09:09:08.649Z,101336.16
2018-09-17T09:12:45.669Z,101333.19
2018-09-17T09:15:17.152Z,101334.91
2018-09-17T09:17:45.579Z,101331.91
2018-09-17T09:20:14.156Z,101333.62
2018-09-17T09:22:42.608Z,101331.08
2018-09-17T09:25:11.017Z,101327.21
2018-09-17T09:27:39.460Z,101331.52
2018-09-17T09:30:07.962Z,101329.36
2018-09-17T09:32:36.387Z,101326.38
2018-09-17T09:35:04.775Z,101320.78
2018-09-17T09:37:33.157Z,101317.34
2018-09-17T09:40:01.569Z,101319.05
2018-09-17T09:42:29.984Z,101315.63
2018-09-17T09:44:58.401Z,101317.79
2018-09-17T09:47:26.891Z,101313.03
2018-09-17T09:49:55.304Z,101310.46
2018-09-17T09:52:23.729Z,101306.58
2018-09-17T09:54:52.136Z,101300.99
2018-09-17T09:57:20.586Z,101299.25
2018-09-17T09:59:49.024Z,101295.81
2018-09-17T10:02:22.644Z,101294.11
2018-09-17T10:04:51.063Z,101284.59
2018-09-17T10:07:19.828Z,101287.20
2018-09-17T10:09:53.597Z,101286.31
2018-09-17T10:12:27.427Z,101283.70
2018-09-17T10:15:01.163Z,101288.00
2018-09-17T10:17:34.980Z,101289.72
2018-09-17T10:20:03.410Z,101298.75
2018-09-17T10:22:31.776Z,101287.05
2018-09-17T10:25:00.188Z,101289.52
2018-09-17T10:27:28.873Z,101285.64
2018-09-17T10:29:57.318Z,101279.58
2018-09-17T10:32:25.676Z,101275.20
2018-09-17T10:34:55.084Z,101269.63
2018-09-17T10:37:23.479Z,101270.50
2018-09-17T10:39:51.862Z,101269.20
2018-09-17T10:42:20.829Z,101267.06
2018-09-17T10:44:49.212Z,101269.62
2018-09-17T10:47:17.610Z,101265.67
2018-09-17T10:49:46.009Z,101266.58
2018-09-17T10:52:14.401Z,101259.23
2018-09-17T10:54:42.796Z,101254.48
2018-09-17T10:57:11.194Z,101251.94
2018-09-17T10:59:39.644Z,101248.86
2018-09-17T11:02:08.037Z,101246.66
2018-09-17T11:04:36.446Z,101246.22
2018-09-17T11:07:04.873Z,101246.17
2018-09-17T11:09:33.293Z,101245.64
2018-09-17T11:12:01.673Z,101238.59
2018-09-17T11:14:30.066Z,101236.75
2018-09-17T11:16:58.475Z,101233.24
2018-09-17T11:19:26.984Z,101231.77
2018-09-17T11:21:55.397Z,101234.20
2018-09-17T11:24:24.043Z,101228.98
2018-09-17T11:26:52.445Z,101222.52
2018-09-17T11:29:20.896Z,101212.98
2018-09-17T11:31:49.312Z,101212.55
2018-09-17T11:34:17.739Z,101209.55
2018-09-17T11:36:46.167Z,101216.77
2018-09-17T11:39:14.633Z,101213.73
2018-09-17T11:41:43.066Z,101213.66
2018-09-17T11:44:11.470Z,101206.72
2018-09-17T11:46:39.896Z,101208.65
2018-09-17T11:49:08.515Z,101212.47
2018-09-17T11:51:37.020Z,101205.90
2018-09-17T11:54:06.247Z,101203.30
2018-09-17T11:56:34.597Z,101204.27
2018-09-17T11:59:03.067Z,101201.75
2018-09-17T12:01:36.621Z,101189.04
2018-09-17T12:04:10.174Z,101194.17
2018-09-17T12:06:43.851Z,101184.27
2018-09-17T12:09:12.332Z,101181.94
2018-09-17T12:11:41.208Z,101186.20
2018-09-17T12:14:09.866Z,101182.34
2018-09-17T12:16:38.331Z,101186.56
2018-09-17T12:19:06.792Z,101183.50
2018-09-17T12:21:35.499Z,101172.08
2018-09-17T12:24:03.994Z,101172.45
2018-09-17T12:26:32.366Z,101167.80
2018-09-17T12:29:00.909Z,101160.55
2018-09-17T12:31:29.307Z,101156.94
2018-09-17T12:33:57.776Z,101153.51
2018-09-17T12:36:26.096Z,101151.56
2018-09-17T12:38:54.498Z,101150.64
2018-09-17T12:41:22.952Z,101149.53
2018-09-17T12:43:51.400Z,101149.66
2018-09-17T12:46:19.787Z,101148.47
2018-09-17T12:48:48.211Z,101136.34
2018-09-17T12:51:16.629Z,101129.32
2018-09-17T12:53:45.022Z,101128.73
2018-09-17T12:56:13.448Z,101124.84
2018-09-17T12:58:41.857Z,101129.78
2018-09-17T13:01:10.400Z,101125.46
2018-09-17T13:03:38.871Z,101119.25
2018-09-17T13:06:07.298Z,101122.23
2018-09-17T13:08:36.013Z,101118.30
2018-09-17T13:11:04.455Z,101115.59
2018-09-17T13:13:32.892Z,101114.80
2018-09-17T13:16:01.360Z,101110.09
2018-09-17T13:18:29.782Z,101109.97
2018-09-17T13:20:59.442Z,101104.86
2018-09-17T13:23:27.907Z,101107.34
2018-09-17T13:25:56.320Z,101107.53
2018-09-17T13:28:24.719Z,101094.83
2018-09-17T13:30:53.141Z,101091.84
2018-09-17T13:33:21.584Z,101100.33
2018-09-17T13:35:50.127Z,101096.44
2018-09-17T13:38:18.546Z,101091.25
2018-09-17T13:40:47.001Z,101086.77
2018-09-17T13:43:15.474Z,101086.38
2018-09-17T13:45:43.990Z,101085.06
2018-09-17T13:48:12.477Z,101083.06
2018-09-17T13:50:41.025Z,101077.79
2018-09-17T13:53:09.483Z,101081.22
2018-09-17T13:55:38.034Z,101078.36
2018-09-17T13:58:06.578Z,101077.46
2018-09-17T14:00:35.252Z,101070.04
2018-09-17T14:03:03.744Z,101069.64
2018-09-17T14:05:32.184Z,101071.67
2018-09-17T14:08:00.604Z,101072.95
2018-09-17T14:10:29.071Z,101065.39
2018-09-17T14:12:57.517Z,101064.69
2018-09-17T14:15:25.977Z,101060.39
2018-09-17T14:17:54.387Z,101065.13
2018-09-17T14:22:50.164Z,101055.47
2018-09-17T14:25:18.555Z,101048.34
2018-09-17T14:27:47.154Z,101047.77
2018-09-17T14:30:15.617Z,101044.50
2018-09-17T14:32:49.443Z,101037.80
2018-09-17T14:35:17.963Z,101034.16
2018-09-17T14:37:46.339Z,101021.20
2018-09-17T14:40:14.777Z,101017.78
2018-09-17T14:42:43.206Z,101020.08
2018-09-17T14:45:11.596Z,101017.57
2018-09-17T14:47:40.605Z,101009.91
2018-09-17T14:50:09.620Z,101007.05
2018-09-17T14:52:38.047Z,100998.17
2018-09-17T14:55:06.557Z,100996.38
2018-09-17T14:57:35.016Z,100995.72
2018-09-17T15:00:03.564Z,100986.07
2018-09-17T15:02:32.097Z,100986.74
2018-09-17T15:05:00.515Z,100978.72
2018-09-17T15:07:28.939Z,100975.50
2018-09-17T15:09:57.395Z,100977.73
2018-09-17T15:12:25.861Z,100975.54
2018-09-17T15:14:54.337Z,100977.34
2018-09-17T15:17:22.752Z,100968.13
2018-09-17T15:19:51.201Z,100983.75
2018-09-17T15:22:19.708Z,100976.48
2018-09-17T15:24:52.947Z,100978.84
2018-09-17T15:27:21.364Z,100968.94
2018-09-17T15:29:49.824Z,100972.47
2018-09-17T15:32:18.346Z,100967.72
2018-09-17T15:34:46.665Z,100963.81
2018-09-17T15:37:15.113Z,100960.72
2018-09-17T15:39:43.594Z,100957.10
2018-09-17T15:42:11.924Z,100958.36
2018-09-17T15:44:40.378Z,100960.15
2018-09-17T15:47:08.925Z,100961.45
2018-09-17T15:49:37.411Z,100957.67
2018-09-17T15:52:05.871Z,100948.61
2018-09-17T15:54:34.281Z,100945.20
2018-09-17T15:57:02.734Z,100938.34
2018-09-17T15:59:31.123Z,100939.73
2018-09-17T16:01:59.589Z,100937.12
2018-09-17T16:04:27.993Z,100936.68
2018-09-17T16:06:56.422Z,100931.61
2018-09-17T16:09:24.839Z,100932.99
2018-09-17T16:11:54.245Z,100938.47
2018-09-17T16:14:23.092Z,100929.64
2018-09-17T16:16:51.625Z,100923.95
2018-09-17T16:19:20.046Z,100916.19
2018-09-17T16:21:49.580Z,100922.69
2018-09-17T16:24:18.801Z,100918.84
2018-09-17T16:26:47.213Z,100922.02
2018-09-17T16:29:15.684Z,100918.97
2018-09-17T16:31:44.411Z,100925.47
2018-09-17T16:34:12.828Z,100925.06
2018-09-17T16:36:41.210Z,100921.16
2018-09-17T16:41:48.663Z,100922.67
2018-09-17T16:44:17.624Z,100915.95
2018-09-17T16:46:46.090Z,100892.56
2018-09-17T16:49:14.904Z,100914.89
2018-09-17T16:51:43.428Z,100914.58
2018-09-17T16:54:11.911Z,100914.05
2018-09-17T16:56:40.285Z,100906.69
2018-09-17T16:59:08.928Z,100904.17
2018-09-17T17:01:37.419Z,100906.91
2018-09-17T17:04:05.886Z,100902.27
2018-09-17T17:06:34.317Z,100902.89
2018-09-17T17:09:03.330Z,100906.53
2018-09-17T17:11:31.769Z,100902.27
2018-09-17T17:14:01.656Z,100899.34
2018-09-17T17:16:30.113Z,100903.73
2018-09-17T17:18:58.580Z,100904.66
2018-09-17T17:21:27.464Z,100909.12
2018-09-17T17:23:55.942Z,100901.95
2018-09-17T17:26:24.497Z,100894.24
2018-09-17T17:28:52.980Z,100897.33
2018-09-17T17:31:22.138Z,100894.77
2018-09-17T17:33:51.676Z,100888.87
2018-09-17T17:36:20.096Z,100892.88
2018-09-17T17:38:49.580Z,100893.02
2018-09-17T17:41:18.020Z,100890.94
2018-09-17T17:43:47.285Z,100889.30
2018-09-17T17:46:17.331Z,100888.08
2018-09-17T17:48:45.701Z,100882.95
2018-09-17T17:51:14.599Z,100887.47
2018-09-17T17:53:42.975Z,100886.20
2018-09-17T17:56:11.393Z,100886.31
2018-09-17T17:58:40.520Z,100886.38
2018-09-17T18:01:10.008Z,100888.63
2018-09-17T18:03:38.343Z,100884.46
2018-09-17T18:06:06.981Z,100888.89
2018-09-17T18:08:35.446Z,100886.08
2018-09-17T18:11:03.909Z,100885.30
2018-09-17T18:13:32.464Z,100878.43
2018-09-17T18:16:03.259Z,100878.91
2018-09-17T18:18:32.668Z,100876.78
2018-09-17T18:21:01.712Z,100877.83
2018-09-17T18:23:30.107Z,100891.76
2018-09-17T18:25:58.585Z,100890.17
2018-09-17T18:28:27.044Z,100884.19
2018-09-17T18:30:55.487Z,100886.48
2018-09-17T18:33:23.969Z,100887.42
2018-09-17T18:35:52.446Z,100881.11
2018-09-17T18:38:20.955Z,100882.05
2018-09-17T18:40:49.429Z,100882.46
2018-09-17T18:43:17.882Z,100882.10
2018-09-17T18:45:46.349Z,100879.56
2018-09-17T18:48:14.818Z,100880.58
2018-09-17T18:50:44.080Z,100882.31
2018-09-17T18:53:12.495Z,100877.16
2018-09-17T18:55:40.920Z,100875.42
2018-09-17T18:58:09.386Z,100877.59
2018-09-17T19:00:37.847Z,100880.27
2018-09-17T19:03:06.415Z,100879.95
2018-09-17T19:05:37.765Z,100874.38
2018-09-17T19:08:06.241Z,100875.80
2018-09-17T19:10:34.698Z,100871.53
2018-09-17T19:13:03.151Z,100875.88
2018-09-17T19:15:36.848Z,100875.09
2018-09-17T19:18:10.566Z,100875.95
2018-09-17T19:20:39.213Z,100878.95
2018-09-17T19:23:12.676Z,100874.82
2018-09-17T19:25:41.146Z,100871.83
2018-09-17T19:28:14.787Z,100875.72
2018-09-17T19:30:43.241Z,100874.98
2018-09-17T19:33:12.422Z,100875.44
2018-09-17T19:35:40.871Z,100874.18
2018-09-17T19:38:14.496Z,100874.62
2018-09-17T19:40:42.918Z,100875.05
2018-09-17T19:43:11.370Z,100869.89
2018-09-17T19:45:45.091Z,100869.56
2018-09-17T19:48:13.601Z,100874.83
2018-09-17T19:50:47.418Z,100872.23
2018-09-17T19:53:15.885Z,100874.02
2018-09-17T19:55:44.329Z,100874.95
2018-09-17T19:58:18.204Z,100873.71
2018-09-17T20:00:46.721Z,100876.73
2018-09-17T20:03:15.101Z,100875.02
2018-09-17T20:05:50.031Z,100872.01
2018-09-17T20:08:18.534Z,100870.82
2018-09-17T20:10:46.964Z,100874.73
2018-09-17T20:13:15.403Z,100869.17
2018-09-17T20:15:44.504Z,100870.05
2018-09-17T20:18:12.917Z,100867.03
2018-09-17T20:20:41.383Z,100869.27
2018-09-17T20:23:09.875Z,100870.16
2018-09-17T20:25:38.274Z,100867.20
2018-09-17T20:28:06.692Z,100864.62
2018-09-17T20:30:35.802Z,100857.36
2018-09-17T20:33:04.369Z,100861.70
2018-09-17T20:35:32.807Z,100865.13
2018-09-17T20:38:01.262Z,100857.03
2018-09-17T20:40:29.663Z,100863.48
2018-09-17T20:42:58.126Z,100867.78
2018-09-17T20:45:28.918Z,100863.52
2018-09-17T20:47:57.334Z,100862.33
2018-09-17T20:50:25.755Z,100866.66
2018-09-17T20:52:54.237Z,100858.91
2018-09-17T20:55:23.002Z,100863.66
2018-09-17T20:57:51.313Z,100861.50
2018-09-17T21:00:19.707Z,100863.23
2018-09-17T21:02:48.097Z,100859.81
2018-09-17T21:05:16.541Z,100858.16
2018-09-17T21:07:44.927Z,100856.42
2018-09-17T21:10:13.368Z,100854.28
2018-09-17T21:12:41.910Z,100858.62
2018-09-17T21:15:10.264Z,100860.37
2018-09-17T21:17:38.678Z,100859.56
2018-09-17T21:20:07.121Z,100851.83
2018-09-17T21:22:35.525Z,100853.98
2018-09-17T21:25:03.958Z,100851.45
2018-09-17T21:27:32.322Z,100848.44
2018-09-17T21:30:00.719Z,100847.59
2018-09-17T21:32:29.166Z,100847.20
2018-09-17T21:34:57.634Z,100846.73
2018-09-17T21:37:26.032Z,100844.17
2018-09-17T21:39:54.454Z,100849.73
2018-09-17T21:42:22.902Z,100842.41
2018-09-17T21:44:51.308Z,100845.84
2018-09-17T21:47:19.733Z,100841.61
2018-09-17T21:49:48.136Z,100839.46
2018-09-17T21:52:16.643Z,100836.48
2018-09-17T21:54:44.949Z,100840.34
2018-09-17T21:57:13.399Z,100830.02
2018-09-17T21:59:41.795Z,100839.48
2018-09-17T22:02:10.252Z,100841.20
2018-09-17T22:04:38.623Z,100827.89
2018-09-17T22:07:07.056Z,100829.59
2018-09-17T22:09:35.498Z,100829.14
2018-09-17T22:12:03.932Z,100825.22
2018-09-17T22:14:32.368Z,100824.37
2018-09-17T22:17:00.775Z,100821.76
2018-09-17T22:19:29.265Z,100820.47
2018-09-17T22:21:57.649Z,100820.90
2018-09-17T22:24:26.087Z,100821.34
2018-09-17T22:26:54.468Z,100815.72
2018-09-17T22:29:22.900Z,100811.41
2018-09-17T22:31:51.268Z,100812.70
2018-09-17T22:34:19.679Z,100810.97
2018-09-17T22:36:48.125Z,100804.94
2018-09-17T22:39:16.544Z,100808.37
2018-09-17T22:41:44.957Z,100807.92
2018-09-17T22:44:13.345Z,100802.76
2018-09-17T22:46:41.794Z,100795.00
2018-09-17T22:49:10.242Z,100793.67
2018-09-17T22:51:38.648Z,100789.34
2018-09-17T22:54:07.092Z,100796.23
2018-09-17T22:56:35.495Z,100792.36
2018-09-17T22:59:03.952Z,100791.08
2018-09-17T23:01:32.409Z,100792.80
2018-09-17T23:04:00.844Z,100789.81
2018-09-17T23:06:29.270Z,100789.84
2018-09-17T23:08:57.657Z,100785.11
2018-09-17T23:11:26.040Z,100780.80
2018-09-17T23:13:54.439Z,100778.63
2018-09-17T23:16:22.832Z,100779.47
2018-09-17T23:18:51.259Z,100779.45
2018-09-17T23:21:19.632Z,100772.58
2018-09-17T23:23:48.065Z,100774.30
2018-09-17T23:26:16.481Z,100779.03
2018-09-17T23:28:44.913Z,100769.58
2018-09-17T23:31:13.328Z,100773.88
2018-09-17T23:33:41.769Z,100767.00
2018-09-17T23:36:10.671Z,100769.56
2018-09-17T23:38:39.068Z,100766.55
2018-09-17T23:41:07.461Z,100764.38
2018-09-17T23:43:35.912Z,100764.38
2018-09-17T23:46:04.320Z,100763.09
2018-09-17T23:48:32.759Z,100767.41
2018-09-17T23:51:02.126Z,100758.80
2018-09-17T23:53:30.525Z,100758.42
2018-09-17T23:55:58.920Z,100758.00
2018-09-17T23:58:27.311Z,100758.44
